createdAt,value
2023-04-25T00:00:16.763Z,96642.03
2023-04-25T00:02:43.668Z,96641.06
2023-04-25T00:05:10.592Z,96653.78
2023-04-25T00:07:37.311Z,96647.41
2023-04-25T00:10:03.943Z,96644.00
2023-04-25T00:12:30.543Z,96647.97
2023-04-25T00:14:57.144Z,96640.16
2023-04-25T00:17:23.775Z,96641.66
2023-04-25T00:19:50.548Z,96635.81
2023-04-25T00:22:17.151Z,96634.56
2023-04-25T00:24:43.856Z,96633.22
2023-04-25T00:27:10.520Z,96639.25
2023-04-25T00:29:37.160Z,96644.69
2023-04-25T00:32:03.769Z,96641.03
2023-04-25T00:34:30.477Z,96629.84
2023-04-25T00:36:57.109Z,96624.09
2023-04-25T00:39:23.708Z,96638.97
2023-04-25T00:41:50.373Z,96634.34
2023-04-25T00:44:16.967Z,96621.31
2023-04-25T00:46:43.641Z,96621.13
2023-04-25T00:49:10.211Z,96625.69
2023-04-25T00:51:36.873Z,96628.97
2023-04-25T00:54:03.459Z,96635.47
2023-04-25T00:56:30.092Z,96632.63
2023-04-25T00:58:56.815Z,96625.03
2023-04-25T01:01:23.459Z,96628.44
2023-04-25T01:03:50.533Z,96627.09
2023-04-25T01:06:17.366Z,96625.81
2023-04-25T01:08:44.133Z,96625.13
2023-04-25T01:11:10.811Z,96618.28
2023-04-25T01:13:37.461Z,96628.16
2023-04-25T01:16:04.127Z,96621.50
2023-04-25T01:18:30.749Z,96615.78
2023-04-25T01:20:57.346Z,96622.09
2023-04-25T01:23:23.944Z,96619.38
2023-04-25T01:25:50.558Z,96614.91
2023-04-25T01:28:17.164Z,96626.97
2023-04-25T01:30:43.819Z,96616.34
2023-04-25T01:33:10.423Z,96626.09
2023-04-25T01:35:37.011Z,96620.19
2023-04-25T01:38:03.615Z,96623.44
2023-04-25T01:40:30.400Z,96637.16
2023-04-25T01:42:57.249Z,96637.97
2023-04-25T01:45:24.892Z,96630.50
2023-04-25T01:47:51.535Z,96643.66
2023-04-25T01:50:18.284Z,96638.59
2023-04-25T01:52:45.076Z,96638.59
2023-04-25T01:55:11.930Z,96642.81
2023-04-25T01:57:38.596Z,96638.94
2023-04-25T02:00:05.182Z,96643.69
2023-04-25T02:02:31.934Z,96634.19
2023-04-25T02:04:58.570Z,96632.53
2023-04-25T02:07:25.210Z,96640.66
2023-04-25T02:09:52.247Z,96639.19
2023-04-25T02:12:18.854Z,96640.75
2023-04-25T02:14:45.516Z,96644.13
2023-04-25T02:17:12.348Z,96647.00
2023-04-25T02:19:39.099Z,96643.53
2023-04-25T02:22:05.681Z,96645.25
2023-04-25T02:24:32.284Z,96649.50
2023-04-25T02:26:58.866Z,96655.66
2023-04-25T02:29:25.477Z,96654.50
2023-04-25T02:31:52.154Z,96662.84
2023-04-25T02:34:18.860Z,96663.94
2023-04-25T02:36:45.733Z,96664.78
2023-04-25T02:39:12.459Z,96664.22
2023-04-25T02:41:39.030Z,96664.63
2023-04-25T02:44:05.637Z,96652.69
2023-04-25T02:46:39.132Z,96655.41
2023-04-25T02:49:06.842Z,96651.56
2023-04-25T02:51:33.509Z,96652.03
2023-04-25T02:54:00.193Z,96648.94
2023-04-25T02:56:26.764Z,96645.41
2023-04-25T02:58:53.347Z,96646.06
2023-04-25T03:01:20.085Z,96646.59
2023-04-25T03:03:46.847Z,96656.31
2023-04-25T03:06:13.788Z,96650.22
2023-04-25T03:08:40.413Z,96647.75
2023-04-25T03:11:06.983Z,96653.81
2023-04-25T03:13:33.589Z,96645.69
2023-04-25T03:16:00.204Z,96654.06
2023-04-25T03:18:26.820Z,96645.72
2023-04-25T03:20:53.514Z,96648.59
2023-04-25T03:23:20.165Z,96647.47
2023-04-25T03:25:46.816Z,96638.09
2023-04-25T03:28:13.432Z,96648.69
2023-04-25T03:30:40.246Z,96639.63
2023-04-25T03:33:07.077Z,96654.25
2023-04-25T03:35:33.763Z,96647.63
2023-04-25T03:38:00.478Z,96649.22
2023-04-25T03:40:27.119Z,96652.91
2023-04-25T03:42:53.732Z,96652.28
2023-04-25T03:45:20.367Z,96656.81
2023-04-25T03:47:47.297Z,96651.34
2023-04-25T03:50:13.967Z,96661.00
2023-04-25T03:52:40.669Z,96660.25
2023-04-25T03:55:07.323Z,96663.56
2023-04-25T03:57:33.970Z,96661.63
2023-04-25T04:00:00.685Z,96653.88
2023-04-25T04:02:27.399Z,96656.94
2023-04-25T04:04:54.297Z,96657.56
2023-04-25T04:07:21.344Z,96659.91
2023-04-25T04:09:47.945Z,96658.25
2023-04-25T04:12:14.612Z,96670.69
2023-04-25T04:14:41.307Z,96670.06
2023-04-25T04:17:07.966Z,96664.63
2023-04-25T04:19:34.980Z,96673.13
2023-04-25T04:22:01.598Z,96670.50
2023-04-25T04:24:28.217Z,96682.63
2023-04-25T04:26:54.866Z,96684.47
2023-04-25T04:29:21.502Z,96680.72
2023-04-25T04:31:48.275Z,96678.38
2023-04-25T04:34:14.977Z,96678.50
2023-04-25T04:36:41.615Z,96674.16
2023-04-25T04:39:08.230Z,96676.47
2023-04-25T04:41:35.032Z,96675.69
2023-04-25T04:44:01.781Z,96676.53
2023-04-25T04:46:28.466Z,96679.34
2023-04-25T04:48:55.190Z,96674.97
2023-04-25T04:51:21.907Z,96675.06
2023-04-25T04:53:48.953Z,96671.34
2023-04-25T04:56:15.792Z,96672.53
2023-04-25T04:58:42.444Z,96667.69
2023-04-25T05:01:09.106Z,96670.50
2023-04-25T05:03:35.898Z,96674.75
2023-04-25T05:06:02.655Z,96672.34
2023-04-25T05:08:29.324Z,96670.84
2023-04-25T05:10:55.935Z,96673.94
2023-04-25T05:13:22.573Z,96669.06
2023-04-25T05:15:49.153Z,96671.75
2023-04-25T05:18:15.835Z,96659.84
2023-04-25T05:20:43.119Z,96657.72
2023-04-25T05:23:09.815Z,96659.34
2023-04-25T05:25:36.401Z,96663.03
2023-04-25T05:28:03.068Z,96653.78
2023-04-25T05:30:29.799Z,96653.50
2023-04-25T05:32:56.461Z,96659.25
2023-04-25T05:35:23.597Z,96664.09
2023-04-25T05:37:50.211Z,96656.09
2023-04-25T05:40:17.028Z,96658.03
2023-04-25T05:42:43.632Z,96656.44
2023-04-25T05:45:10.226Z,96656.06
2023-04-25T05:47:36.872Z,96647.06
2023-04-25T05:50:03.511Z,96642.41
2023-04-25T05:52:30.242Z,96654.34
2023-04-25T05:54:56.906Z,96643.41
2023-04-25T05:57:23.527Z,96646.16
2023-04-25T05:59:50.136Z,96645.03
2023-04-25T06:02:16.821Z,96642.03
2023-04-25T06:04:43.656Z,96638.34
2023-04-25T06:07:10.283Z,96648.34
2023-04-25T06:09:36.878Z,96644.78
2023-04-25T06:12:03.498Z,96642.72
2023-04-25T06:14:30.156Z,96644.31
2023-04-25T06:16:56.857Z,96635.25
2023-04-25T06:19:23.448Z,96631.34
2023-04-25T06:21:50.064Z,96632.53
2023-04-25T06:24:16.667Z,96637.25
2023-04-25T06:26:43.230Z,96633.78
2023-04-25T06:29:09.854Z,96626.78
2023-04-25T06:31:36.582Z,96624.00
2023-04-25T06:34:03.259Z,96625.84
2023-04-25T06:36:29.821Z,96614.69
2023-04-25T06:38:56.400Z,96611.81
2023-04-25T06:41:23.065Z,96605.63
2023-04-25T06:43:49.664Z,96610.59
2023-04-25T06:46:16.242Z,96613.09
2023-04-25T06:48:42.917Z,96613.97
2023-04-25T06:51:09.532Z,96612.03
2023-04-25T06:53:36.233Z,96607.59
2023-04-25T06:56:02.817Z,96601.09
2023-04-25T06:58:29.848Z,96604.09
2023-04-25T07:00:56.447Z,96603.97
2023-04-25T07:03:23.250Z,96594.53
2023-04-25T07:05:49.967Z,96583.66
2023-04-25T07:08:16.615Z,96588.09
2023-04-25T07:10:43.301Z,96582.97
2023-04-25T07:13:09.907Z,96578.44
2023-04-25T07:15:36.555Z,96577.53
2023-04-25T07:18:03.151Z,96578.47
2023-04-25T07:20:29.973Z,96570.47
2023-04-25T07:22:56.711Z,96569.50
2023-04-25T07:25:23.427Z,96565.91
2023-04-25T07:27:50.023Z,96556.34
2023-04-25T07:30:16.596Z,96544.13
2023-04-25T07:32:43.184Z,96540.66
2023-04-25T07:35:09.776Z,96542.72
2023-04-25T07:37:36.396Z,96543.75
2023-04-25T07:40:03.418Z,96544.53
2023-04-25T07:42:29.980Z,96550.09
2023-04-25T07:44:56.661Z,96550.22
2023-04-25T07:47:23.382Z,96554.72
2023-04-25T07:49:50.050Z,96556.16
2023-04-25T07:52:16.640Z,96551.66
2023-04-25T07:54:43.307Z,96543.59
2023-04-25T07:57:10.021Z,96544.28
2023-04-25T07:59:36.799Z,96542.81
2023-04-25T08:02:03.492Z,96541.09
2023-04-25T08:04:30.283Z,96542.56
2023-04-25T08:06:56.996Z,96538.69
2023-04-25T08:09:23.610Z,96549.00
2023-04-25T08:11:50.830Z,96552.47
2023-04-25T08:14:17.504Z,96545.16
2023-04-25T08:16:44.139Z,96548.63
2023-04-25T08:19:10.855Z,96551.81
2023-04-25T08:21:37.512Z,96542.63
2023-04-25T08:24:04.059Z,96540.41
2023-04-25T08:26:30.710Z,96548.06
2023-04-25T08:28:57.331Z,96554.28
2023-04-25T08:31:24.107Z,96554.78
2023-04-25T08:33:50.807Z,96552.38
2023-04-25T08:36:27.901Z,96547.84
2023-04-25T08:39:04.469Z,96556.38
2023-04-25T08:41:31.470Z,96553.44
2023-04-25T08:43:58.153Z,96555.59
2023-04-25T08:46:25.057Z,96556.66
2023-04-25T08:48:52.466Z,96563.56
2023-04-25T08:51:22.359Z,96566.75
2023-04-25T08:53:53.507Z,96558.28
2023-04-25T08:56:20.571Z,96559.06
2023-04-25T08:58:47.151Z,96556.88
2023-04-25T09:01:13.781Z,96557.88
2023-04-25T09:03:40.555Z,96559.94
2023-04-25T09:06:07.210Z,96565.38
2023-04-25T09:08:33.847Z,96554.75
2023-04-25T09:11:00.468Z,96566.00
2023-04-25T09:13:27.084Z,96563.06
2023-04-25T09:15:53.785Z,96561.72
2023-04-25T09:18:20.381Z,96557.72
2023-04-25T09:23:16.534Z,96560.34
2023-04-25T09:25:43.145Z,96556.38
2023-04-25T09:28:09.814Z,96554.31
2023-04-25T09:30:36.467Z,96556.28
2023-04-25T09:33:03.321Z,96561.94
2023-04-25T09:35:30.089Z,96562.56
2023-04-25T09:37:56.760Z,96563.25
2023-04-25T09:40:23.507Z,96560.63
2023-04-25T09:42:50.080Z,96563.34
2023-04-25T09:45:16.702Z,96552.94
2023-04-25T09:47:43.334Z,96561.75
2023-04-25T09:50:09.981Z,96555.31
2023-04-25T09:52:36.713Z,96558.28
2023-04-25T09:55:03.338Z,96557.16
2023-04-25T09:57:29.964Z,96551.09
2023-04-25T09:59:56.617Z,96541.19
2023-04-25T10:02:23.330Z,96544.81
2023-04-25T10:04:50.097Z,96540.31
2023-04-25T10:07:16.809Z,96538.94
2023-04-25T10:09:43.403Z,96532.53
2023-04-25T10:12:09.996Z,96531.03
2023-04-25T10:14:36.701Z,96538.34
2023-04-25T10:17:03.347Z,96526.75
2023-04-25T10:19:30.086Z,96525.19
2023-04-25T10:21:56.653Z,96528.59
2023-04-25T10:24:23.375Z,96519.19
2023-04-25T10:26:50.312Z,96507.19
2023-04-25T10:29:17.122Z,96508.44
2023-04-25T10:31:43.791Z,96509.22
2023-04-25T10:34:10.408Z,96505.69
2023-04-25T10:36:36.986Z,96501.16
2023-04-25T10:39:03.579Z,96495.09
2023-04-25T10:41:30.221Z,96491.66
2023-04-25T10:43:59.194Z,96490.97
2023-04-25T10:46:25.919Z,96487.16
2023-04-25T10:48:52.575Z,96484.53
2023-04-25T10:51:19.168Z,96486.91
2023-04-25T10:53:45.780Z,96473.00
2023-04-25T10:56:13.205Z,96473.22
2023-04-25T10:58:41.045Z,96470.81
2023-04-25T11:01:07.757Z,96467.47
2023-04-25T11:03:34.524Z,96465.28
2023-04-25T11:06:01.535Z,96454.81
2023-04-25T11:08:28.128Z,96459.16
2023-04-25T11:10:54.749Z,96466.34
2023-04-25T11:13:21.421Z,96467.66
2023-04-25T11:15:50.350Z,96477.63
2023-04-25T11:18:21.792Z,96473.94
2023-04-25T11:20:48.622Z,96475.59
2023-04-25T11:23:15.208Z,96481.50
2023-04-25T11:25:41.815Z,96477.16
2023-04-25T11:28:08.421Z,96480.03
2023-04-25T11:30:35.023Z,96473.03
2023-04-25T11:33:01.720Z,96472.47
2023-04-25T11:35:28.384Z,96478.44
2023-04-25T11:37:55.166Z,96480.63
2023-04-25T11:40:21.899Z,96488.34
2023-04-25T11:42:48.488Z,96496.09
2023-04-25T11:45:15.061Z,96486.78
2023-04-25T11:47:41.715Z,96493.44
2023-04-25T11:50:08.362Z,96490.78
2023-04-25T11:52:35.045Z,96497.16
2023-04-25T11:55:01.718Z,96492.63
2023-04-25T11:57:30.668Z,96498.47
2023-04-25T11:59:57.345Z,96499.31
2023-04-25T12:02:24.208Z,96492.91
2023-04-25T12:04:51.651Z,96487.81
2023-04-25T12:07:18.720Z,96485.69
2023-04-25T12:09:45.385Z,96483.56
2023-04-25T12:12:12.520Z,96473.81
2023-04-25T12:14:39.079Z,96484.41
2023-04-25T12:17:06.183Z,96478.53
2023-04-25T12:19:33.129Z,96471.47
2023-04-25T12:22:00.213Z,96473.81
2023-04-25T12:24:27.199Z,96476.22
2023-04-25T12:26:54.306Z,96462.53
2023-04-25T12:29:21.438Z,96457.66
2023-04-25T12:31:48.136Z,96474.94
2023-04-25T12:34:14.914Z,96474.09
2023-04-25T12:36:41.542Z,96466.69
2023-04-25T12:39:08.142Z,96459.66
2023-04-25T12:41:35.118Z,96466.88
2023-04-25T12:44:01.791Z,96467.41
2023-04-25T12:46:28.564Z,96463.81
2023-04-25T12:48:55.960Z,96467.81
2023-04-25T12:51:25.356Z,96459.16
2023-04-25T12:53:51.948Z,96460.28
2023-04-25T12:56:18.792Z,96462.88
2023-04-25T12:58:46.161Z,96461.50
2023-04-25T13:01:12.811Z,96460.16
2023-04-25T13:03:39.586Z,96457.19
2023-04-25T13:06:06.444Z,96458.00
2023-04-25T13:08:33.084Z,96452.03
2023-04-25T13:10:59.649Z,96447.19
2023-04-25T13:13:26.228Z,96454.34
2023-04-25T13:15:52.939Z,96449.56
2023-04-25T13:18:19.521Z,96446.53
2023-04-25T13:20:46.141Z,96448.22
2023-04-25T13:23:12.863Z,96442.97
2023-04-25T13:25:39.738Z,96446.13
2023-04-25T13:28:06.344Z,96449.00
2023-04-25T13:30:32.945Z,96446.72
2023-04-25T13:32:59.555Z,96443.06
2023-04-25T13:35:26.191Z,96448.63
2023-04-25T13:37:52.985Z,96451.09
2023-04-25T13:40:19.577Z,96446.31
2023-04-25T13:42:46.179Z,96446.63
2023-04-25T13:45:12.760Z,96447.44
2023-04-25T13:47:39.374Z,96446.94
2023-04-25T13:50:06.094Z,96449.28
2023-04-25T13:52:32.755Z,96442.31
2023-04-25T13:54:59.355Z,96442.03
2023-04-25T13:57:25.964Z,96453.38
2023-04-25T13:59:52.590Z,96456.44
2023-04-25T14:02:19.214Z,96444.25
2023-04-25T14:04:45.999Z,96437.22
2023-04-25T14:07:12.874Z,96442.41
2023-04-25T14:09:39.600Z,96441.53
2023-04-25T14:12:06.179Z,96436.09
2023-04-25T14:14:32.785Z,96433.78
2023-04-25T14:16:59.383Z,96438.53
2023-04-25T14:19:26.035Z,96435.94
2023-04-25T14:21:52.623Z,96441.25
2023-04-25T14:24:19.269Z,96438.22
2023-04-25T14:26:45.848Z,96436.78
2023-04-25T14:29:12.480Z,96443.41
2023-04-25T14:31:39.302Z,96449.19
2023-04-25T14:34:05.923Z,96451.41
2023-04-25T14:36:32.522Z,96457.41
2023-04-25T14:38:59.133Z,96456.34
2023-04-25T14:41:25.737Z,96457.03
2023-04-25T14:43:52.719Z,96463.91
2023-04-25T14:46:19.538Z,96454.63
2023-04-25T14:48:46.351Z,96466.34
2023-04-25T14:51:12.941Z,96463.03
2023-04-25T14:53:39.654Z,96473.53
2023-04-25T14:56:06.282Z,96471.50
2023-04-25T14:58:32.986Z,96472.47
2023-04-25T15:00:59.760Z,96477.06
2023-04-25T15:03:26.451Z,96475.44
2023-04-25T15:05:53.129Z,96482.63
2023-04-25T15:08:19.817Z,96482.81
2023-04-25T15:10:46.431Z,96477.13
2023-04-25T15:13:13.034Z,96480.38
2023-04-25T15:15:39.617Z,96485.75
2023-04-25T15:18:06.349Z,96491.56
2023-04-25T15:20:32.949Z,96475.41
2023-04-25T15:22:59.639Z,96474.75
2023-04-25T15:25:26.367Z,96468.56
2023-04-25T15:27:52.963Z,96474.97
2023-04-25T15:30:19.683Z,96489.22
2023-04-25T15:32:46.292Z,96481.28
2023-04-25T15:35:12.985Z,96489.22
2023-04-25T15:37:39.627Z,96480.56
2023-04-25T15:40:06.231Z,96482.97
2023-04-25T15:42:32.805Z,96485.09
2023-04-25T15:44:59.374Z,96480.84
2023-04-25T15:47:25.973Z,96472.63
2023-04-25T15:49:52.584Z,96465.78
2023-04-25T15:52:19.174Z,96466.13
2023-04-25T15:54:45.765Z,96470.00
2023-04-25T15:57:15.433Z,96469.00
2023-04-25T15:59:42.255Z,96461.03
2023-04-25T16:02:08.929Z,96467.53
2023-04-25T16:04:35.603Z,96455.81
2023-04-25T16:07:02.333Z,96467.69
2023-04-25T16:09:29.315Z,96463.25
2023-04-25T16:11:55.965Z,96460.66
2023-04-25T16:14:22.577Z,96463.25
2023-04-25T16:16:49.331Z,96469.06
2023-04-25T16:19:15.945Z,96471.38
2023-04-25T16:21:42.541Z,96468.31
2023-04-25T16:24:09.193Z,96467.13
2023-04-25T16:26:35.785Z,96475.66
2023-04-25T16:29:02.401Z,96470.88
2023-04-25T16:31:28.999Z,96469.31
2023-04-25T16:33:55.702Z,96469.88
2023-04-25T16:36:22.349Z,96466.66
2023-04-25T16:38:49.498Z,96479.31
2023-04-25T16:41:16.340Z,96497.09
2023-04-25T16:43:42.936Z,96485.53
2023-04-25T16:46:09.634Z,96487.75
2023-04-25T16:48:36.448Z,96493.13
2023-04-25T16:51:03.010Z,96496.75
2023-04-25T16:53:29.600Z,96498.13
2023-04-25T16:55:56.258Z,96507.44
2023-04-25T16:58:22.875Z,96505.97
2023-04-25T17:00:49.560Z,96507.84
2023-04-25T17:03:16.424Z,96495.28
2023-04-25T17:05:43.126Z,96515.00
2023-04-25T17:08:10.274Z,96516.06
2023-04-25T17:10:37.266Z,96519.78
2023-04-25T17:13:04.359Z,96538.75
2023-04-25T17:15:33.069Z,96539.78
2023-04-25T17:18:00.953Z,96551.47
2023-04-25T17:20:27.540Z,96556.09
2023-04-25T17:22:54.123Z,96567.19
2023-04-25T17:25:20.883Z,96573.41
2023-04-25T17:27:47.463Z,96578.28
2023-04-25T17:30:14.088Z,96595.91
2023-04-25T17:32:40.697Z,96593.00
2023-04-25T17:35:07.361Z,96598.53
2023-04-25T17:37:33.988Z,96601.78
2023-04-25T17:40:00.634Z,96620.41
2023-04-25T17:42:27.218Z,96609.56
2023-04-25T17:44:53.809Z,96617.38
2023-04-25T17:47:20.367Z,96622.94
2023-04-25T17:49:46.970Z,96627.91
2023-04-25T17:52:13.608Z,96632.31
2023-04-25T17:54:40.346Z,96638.44
2023-04-25T17:57:06.944Z,96640.38
2023-04-25T17:59:33.536Z,96642.28
2023-04-25T18:02:00.219Z,96646.56
2023-04-25T18:04:27.224Z,96645.69
2023-04-25T18:06:53.855Z,96649.34
2023-04-25T18:09:20.463Z,96652.22
2023-04-25T18:11:47.102Z,96652.31
2023-04-25T18:14:13.724Z,96662.47
2023-04-25T18:16:40.364Z,96673.06
2023-04-25T18:19:07.012Z,96667.25
2023-04-25T18:21:33.613Z,96675.72
2023-04-25T18:24:00.185Z,96679.59
2023-04-25T18:26:26.821Z,96675.47
2023-04-25T18:28:53.728Z,96684.06
2023-04-25T18:31:20.705Z,96699.28
2023-04-25T18:33:47.342Z,96699.75
2023-04-25T18:36:13.989Z,96711.84
2023-04-25T18:38:40.593Z,96715.06
2023-04-25T18:41:27.471Z,96721.94
2023-04-25T18:43:54.212Z,96727.13
2023-04-25T18:46:21.270Z,96728.25
2023-04-25T18:48:47.915Z,96738.66
2023-04-25T18:51:14.494Z,96739.59
2023-04-25T18:53:41.098Z,96737.38
2023-04-25T18:56:07.700Z,96752.34
2023-04-25T18:58:34.306Z,96744.28
2023-04-25T19:01:00.974Z,96750.19
2023-04-25T19:03:27.778Z,96761.03
2023-04-25T19:05:54.449Z,96754.81
2023-04-25T19:08:21.029Z,96757.38
2023-04-25T19:10:47.840Z,96762.09
2023-04-25T19:13:14.410Z,96766.97
2023-04-25T19:15:41.089Z,96766.72
2023-04-25T19:18:07.839Z,96779.13
2023-04-25T19:20:34.455Z,96768.38
2023-04-25T19:23:01.085Z,96776.53
2023-04-25T19:25:27.704Z,96787.00
2023-04-25T19:27:54.323Z,96794.63
2023-04-25T19:30:21.076Z,96797.59
2023-04-25T19:32:48.005Z,96801.88
2023-04-25T19:35:14.658Z,96798.66
2023-04-25T19:37:41.265Z,96802.66
2023-04-25T19:40:07.845Z,96806.91
2023-04-25T19:42:34.429Z,96811.03
2023-04-25T19:45:01.076Z,96813.69
2023-04-25T19:47:27.704Z,96814.59
2023-04-25T19:49:54.327Z,96823.75
2023-04-25T19:52:20.899Z,96830.16
2023-04-25T19:54:47.493Z,96832.00
2023-04-25T19:57:14.102Z,96832.06
2023-04-25T19:59:40.713Z,96832.78
2023-04-25T20:02:07.339Z,96843.19
2023-04-25T20:04:34.101Z,96837.19
2023-04-25T20:07:00.862Z,96843.81
2023-04-25T20:09:27.452Z,96846.72
2023-04-25T20:11:54.193Z,96851.94
2023-04-25T20:14:20.869Z,96844.69
2023-04-25T20:16:47.548Z,96850.34
2023-04-25T20:19:14.257Z,96842.78
2023-04-25T20:21:40.829Z,96836.41
2023-04-25T20:24:07.418Z,96839.41
2023-04-25T20:26:34.032Z,96838.09
2023-04-25T20:29:00.639Z,96847.81
2023-04-25T20:31:27.300Z,96852.44
2023-04-25T20:33:53.893Z,96857.41
2023-04-25T20:36:20.511Z,96862.72
2023-04-25T20:38:47.111Z,96867.28
2023-04-25T20:41:13.794Z,96867.56
2023-04-25T20:43:40.414Z,96873.69
2023-04-25T20:46:07.074Z,96877.97
2023-04-25T20:48:33.957Z,96875.78
2023-04-25T20:51:00.653Z,96877.44
2023-04-25T20:53:27.286Z,96883.69
2023-04-25T20:55:53.928Z,96884.78
2023-04-25T20:58:20.700Z,96896.88
2023-04-25T21:00:47.506Z,96895.63
2023-04-25T21:03:14.496Z,96898.44
2023-04-25T21:05:41.166Z,96899.38
2023-04-25T21:08:07.785Z,96904.44
2023-04-25T21:10:36.168Z,96908.41
2023-04-25T21:13:04.078Z,96903.75
2023-04-25T21:15:30.763Z,96908.22
2023-04-25T21:17:57.465Z,96918.16
2023-04-25T21:20:24.209Z,96908.03
2023-04-25T21:22:53.811Z,96905.97
2023-04-25T21:25:21.123Z,96913.13
2023-04-25T21:27:47.694Z,96908.91
2023-04-25T21:30:14.343Z,96918.84
2023-04-25T21:32:41.010Z,96918.97
2023-04-25T21:35:07.697Z,96923.22
2023-04-25T21:37:34.629Z,96929.94
2023-04-25T21:40:01.248Z,96937.63
2023-04-25T21:42:27.905Z,96938.25
2023-04-25T21:44:54.507Z,96942.13
2023-04-25T21:47:21.195Z,96943.69
2023-04-25T21:49:47.826Z,96940.31
2023-04-25T21:52:14.446Z,96938.88
2023-04-25T21:54:41.089Z,96945.41
2023-04-25T21:57:08.102Z,96945.00
2023-04-25T21:59:34.682Z,96950.47
2023-04-25T22:02:01.344Z,96957.97
2023-04-25T22:04:28.183Z,96958.78
2023-04-25T22:06:55.125Z,96956.97
2023-04-25T22:09:22.992Z,96958.16
2023-04-25T22:11:49.605Z,96967.72
2023-04-25T22:14:16.450Z,96973.19
2023-04-25T22:16:43.135Z,96981.03
2023-04-25T22:19:09.865Z,96980.84
2023-04-25T22:21:36.535Z,96976.81
2023-04-25T22:24:03.168Z,96979.84
2023-04-25T22:26:29.784Z,96981.03
2023-04-25T22:28:56.422Z,96975.00
2023-04-25T22:31:23.052Z,96981.66
2023-04-25T22:33:49.709Z,96979.66
2023-04-25T22:36:16.524Z,96978.03
2023-04-25T22:38:43.201Z,96979.25
2023-04-25T22:41:09.863Z,96982.09
2023-04-25T22:43:36.438Z,96982.06
2023-04-25T22:46:03.156Z,96990.97
2023-04-25T22:48:29.774Z,96987.09
2023-04-25T22:50:56.450Z,96987.91
2023-04-25T22:53:23.059Z,96990.72
2023-04-25T22:55:49.675Z,96999.06
2023-04-25T22:58:16.295Z,96998.25
2023-04-25T23:00:42.993Z,96997.66
2023-04-25T23:03:09.768Z,97003.06
2023-04-25T23:05:36.474Z,96995.16
2023-04-25T23:08:03.127Z,97008.09
2023-04-25T23:10:29.828Z,97003.28
2023-04-25T23:12:56.461Z,97015.56
2023-04-25T23:15:23.073Z,97012.31
2023-04-25T23:17:49.749Z,97010.78
2023-04-25T23:20:16.360Z,97014.59
2023-04-25T23:22:42.995Z,97022.47
2023-04-25T23:25:09.661Z,97029.19
2023-04-25T23:27:36.345Z,97030.38
2023-04-25T23:30:04.055Z,97024.50
2023-04-25T23:32:30.737Z,97029.84
2023-04-25T23:34:57.364Z,97028.50
2023-04-25T23:37:23.951Z,97021.22
2023-04-25T23:39:50.566Z,97025.31
2023-04-25T23:42:17.220Z,97025.31
2023-04-25T23:44:43.856Z,97025.72
2023-04-25T23:47:10.566Z,97031.19
2023-04-25T23:49:37.217Z,97034.53
2023-04-25T23:52:03.897Z,97034.22
2023-04-25T23:54:30.486Z,97034.78
2023-04-25T23:56:57.113Z,97039.63
2023-04-25T23:59:23.716Z,97043.53
